Terminal Aerodrome Forecast
Issued by NWS Goodland, KS

Home | Current Version | Previous Version | Text Only | Print | Product List | Glossary On
Versions: 1 2 3 4 5 6 7 8 9 10 11 12 13 14
000
FTUS43 KGLD 262326
TAFGLD
TAF
KGLD 262326Z 2700/2724 14013KT 6SM TSRA SCT070CB BKN150
      TEMPO 2700/2703 24030G40KT 1SM +TSRA OVC050CB
     FM270400 15011KT P6SM BKN060
     FM271100 15010KT P6SM SCT005 BKN015
     FM271500 18012KT P6SM SCT035
     FM271900 20018G28KT P6SM SCT100=

USA.gov is the U.S. government's official web portal to all federal, state and local government web resources and services.